sensor_id;sensor_type;location;lat;lon;timestamp;pressure;altitude;pressure_sealevel;temperature;humidity
43155;BME280;34212;51.018;13.586;2022-09-09T00:00:26;97496.50;;;17.75;73.86
43155;BME280;34212;51.018;13.586;2022-09-09T00:05:35;97491.72;;;17.77;73.62
43155;BME280;34212;51.018;13.586;2022-09-09T00:10:39;97492.56;;;17.77;73.74
43155;BME280;34212;51.018;13.586;2022-09-09T00:15:46;97493.38;;;17.78;73.58
43155;BME280;34212;51.018;13.586;2022-09-09T00:21:03;97480.69;;;17.78;73.77
43155;BME280;34212;51.018;13.586;2022-09-09T00:26:22;97493.16;;;17.80;74.08
43155;BME280;34212;51.018;13.586;2022-09-09T00:31:30;97490.53;;;17.73;74.37
43155;BME280;34212;51.018;13.586;2022-09-09T00:36:32;97482.31;;;17.68;74.46
43155;BME280;34212;51.018;13.586;2022-09-09T00:46:41;97470.09;;;17.53;73.71
43155;BME280;34212;51.018;13.586;2022-09-09T00:57:13;97487.19;;;17.47;73.21
43155;BME280;34212;51.018;13.586;2022-09-09T01:02:22;97493.03;;;17.44;73.26
43155;BME280;34212;51.018;13.586;2022-09-09T01:07:26;97483.78;;;17.40;73.21
43155;BME280;34212;51.018;13.586;2022-09-09T01:12:38;97492.13;;;17.39;73.65
43155;BME280;34212;51.018;13.586;2022-09-09T01:23:00;97491.16;;;17.33;74.13
43155;BME280;34212;51.018;13.586;2022-09-09T01:28:08;97487.88;;;17.31;74.17
43155;BME280;34212;51.018;13.586;2022-09-09T01:33:16;97482.47;;;17.31;74.00
43155;BME280;34212;51.018;13.586;2022-09-09T01:38:17;97472.50;;;17.31;74.09
43155;BME280;34212;51.018;13.586;2022-09-09T01:43:24;97475.00;;;17.33;73.89
43155;BME280;34212;51.018;13.586;2022-09-09T01:48:26;97470.19;;;17.35;73.76
43155;BME280;34212;51.018;13.586;2022-09-09T01:53:37;97470.78;;;17.37;73.47
43155;BME280;34212;51.018;13.586;2022-09-09T02:03:47;97466.56;;;17.41;73.20
43155;BME280;34212;51.018;13.586;2022-09-09T02:08:57;97467.41;;;17.42;73.06
43155;BME280;34212;51.018;13.586;2022-09-09T02:14:02;97474.63;;;17.41;72.91
43155;BME280;34212;51.018;13.586;2022-09-09T02:19:14;97468.44;;;17.41;73.03
43155;BME280;34212;51.018;13.586;2022-09-09T02:24:32;97477.78;;;17.38;72.89
43155;BME280;34212;51.018;13.586;2022-09-09T02:29:53;97483.19;;;17.38;73.03
43155;BME280;34212;51.018;13.586;2022-09-09T02:35:09;97472.41;;;17.38;73.29
43155;BME280;34212;51.018;13.586;2022-09-09T02:40:14;97472.41;;;17.38;73.10
43155;BME280;34212;51.018;13.586;2022-09-09T02:45:30;97476.75;;;17.39;72.96
43155;BME280;34212;51.018;13.586;2022-09-09T02:50:34;97480.28;;;17.40;72.78
43155;BME280;34212;51.018;13.586;2022-09-09T02:55:48;97482.16;;;17.39;72.95
43155;BME280;34212;51.018;13.586;2022-09-09T03:00:54;97478.66;;;17.39;72.75
43155;BME280;34212;51.018;13.586;2022-09-09T03:06:00;97468.69;;;17.39;72.83
43155;BME280;34212;51.018;13.586;2022-09-09T03:11:02;97478.41;;;17.40;72.71
43155;BME280;34212;51.018;13.586;2022-09-09T03:16:07;97481.09;;;17.40;72.77
43155;BME280;34212;51.018;13.586;2022-09-09T03:21:15;97480.88;;;17.42;72.81
43155;BME280;34212;51.018;13.586;2022-09-09T03:26:17;97482.72;;;17.41;72.62
43155;BME280;34212;51.018;13.586;2022-09-09T03:31:20;97481.91;;;17.41;72.51
43155;BME280;34212;51.018;13.586;2022-09-09T03:36:22;97476.16;;;17.37;72.58
43155;BME280;34212;51.018;13.586;2022-09-09T03:41:24;97472.66;;;17.37;72.76
43155;BME280;34212;51.018;13.586;2022-09-09T03:46:26;97478.25;;;17.35;72.85
43155;BME280;34212;51.018;13.586;2022-09-09T03:51:28;97478.75;;;17.32;72.80
43155;BME280;34212;51.018;13.586;2022-09-09T03:56:30;97476.28;;;17.30;73.10
43155;BME280;34212;51.018;13.586;2022-09-09T04:01:33;97477.69;;;17.33;73.06
43155;BME280;34212;51.018;13.586;2022-09-09T04:06:35;97466.91;;;17.33;73.04
43155;BME280;34212;51.018;13.586;2022-09-09T04:11:37;97482.84;;;17.35;73.20
43155;BME280;34212;51.018;13.586;2022-09-09T04:16:38;97487.41;;;17.34;73.34
43155;BME280;34212;51.018;13.586;2022-09-09T04:21:41;97483.19;;;17.38;73.43
43155;BME280;34212;51.018;13.586;2022-09-09T04:26:43;97474.44;;;17.43;73.84
43155;BME280;34212;51.018;13.586;2022-09-09T04:31:45;97476.41;;;17.47;74.14
43155;BME280;34212;51.018;13.586;2022-09-09T04:36:48;97486.72;;;17.50;74.34
43155;BME280;34212;51.018;13.586;2022-09-09T04:41:50;97491.66;;;17.53;74.23
43155;BME280;34212;51.018;13.586;2022-09-09T04:46:52;97487.47;;;17.58;74.23
43155;BME280;34212;51.018;13.586;2022-09-09T04:51:55;97483.25;;;17.62;74.18
43155;BME280;34212;51.018;13.586;2022-09-09T04:56:56;97484.41;;;17.66;74.28
43155;BME280;34212;51.018;13.586;2022-09-09T05:01:58;97483.13;;;17.68;74.57
43155;BME280;34212;51.018;13.586;2022-09-09T05:07:00;97486.41;;;17.70;74.20
43155;BME280;34212;51.018;13.586;2022-09-09T05:12:02;97497.94;;;17.77;74.13
43155;BME280;34212;51.018;13.586;2022-09-09T05:17:08;97489.72;;;17.84;74.32
43155;BME280;34212;51.018;13.586;2022-09-09T05:22:12;97493.16;;;17.91;74.19
43155;BME280;34212;51.018;13.586;2022-09-09T05:27:18;97500.78;;;17.94;74.41
43155;BME280;34212;51.018;13.586;2022-09-09T05:32:24;97508.63;;;17.96;74.43
43155;BME280;34212;51.018;13.586;2022-09-09T05:37:26;97520.84;;;17.98;74.56
43155;BME280;34212;51.018;13.586;2022-09-09T05:42:31;97511.34;;;18.08;74.69
43155;BME280;34212;51.018;13.586;2022-09-09T05:47:35;97521.28;;;18.19;74.93
43155;BME280;34212;51.018;13.586;2022-09-09T05:52:36;97530.66;;;18.28;74.80
43155;BME280;34212;51.018;13.586;2022-09-09T05:57:39;97531.94;;;18.37;74.81
43155;BME280;34212;51.018;13.586;2022-09-09T06:02:41;97530.53;;;18.46;75.02
43155;BME280;34212;51.018;13.586;2022-09-09T06:07:46;97537.56;;;18.59;75.21
43155;BME280;34212;51.018;13.586;2022-09-09T06:12:48;97538.84;;;18.68;75.30
43155;BME280;34212;51.018;13.586;2022-09-09T06:17:54;97540.59;;;18.75;74.50
43155;BME280;34212;51.018;13.586;2022-09-09T06:22:55;97545.88;;;18.81;74.59
43155;BME280;34212;51.018;13.586;2022-09-09T06:27:57;97546.09;;;18.91;75.09
43155;BME280;34212;51.018;13.586;2022-09-09T06:32:59;97546.31;;;19.02;75.19
43155;BME280;34212;51.018;13.586;2022-09-09T06:38:01;97541.91;;;19.12;75.57
43155;BME280;34212;51.018;13.586;2022-09-09T06:43:02;97539.75;;;19.26;75.73
43155;BME280;34212;51.018;13.586;2022-09-09T06:48:12;97547.56;;;19.39;76.05
43155;BME280;34212;51.018;13.586;2022-09-09T06:53:15;97541.81;;;19.53;76.42
43155;BME280;34212;51.018;13.586;2022-09-09T06:58:18;97546.00;;;19.72;76.67
43155;BME280;34212;51.018;13.586;2022-09-09T07:03:19;97544.09;;;19.90;76.63
43155;BME280;34212;51.018;13.586;2022-09-09T07:08:21;97538.63;;;20.01;76.62
43155;BME280;34212;51.018;13.586;2022-09-09T07:13:26;97544.19;;;20.12;76.35
43155;BME280;34212;51.018;13.586;2022-09-09T07:18:29;97540.88;;;20.26;76.70
43155;BME280;34212;51.018;13.586;2022-09-09T07:23:32;97532.41;;;20.40;76.94
43155;BME280;34212;51.018;13.586;2022-09-09T07:28:37;97534.44;;;20.49;76.98
43155;BME280;34212;51.018;13.586;2022-09-09T07:33:39;97535.75;;;20.64;77.12
43155;BME280;34212;51.018;13.586;2022-09-09T07:38:46;97548.41;;;20.80;77.19
43155;BME280;34212;51.018;13.586;2022-09-09T07:43:49;97543.50;;;20.99;76.88
43155;BME280;34212;51.018;13.586;2022-09-09T07:48:52;97547.53;;;21.18;76.36
43155;BME280;34212;51.018;13.586;2022-09-09T07:53:59;97554.00;;;21.39;74.49
43155;BME280;34212;51.018;13.586;2022-09-09T07:59:02;97558.97;;;21.48;73.50
43155;BME280;34212;51.018;13.586;2022-09-09T08:04:16;97562.50;;;21.48;73.11
43155;BME280;34212;51.018;13.586;2022-09-09T08:09:19;97556.50;;;21.46;72.88
43155;BME280;34212;51.018;13.586;2022-09-09T08:14:22;97566.41;;;21.57;73.52
43155;BME280;34212;51.018;13.586;2022-09-09T08:19:24;97566.56;;;21.73;73.87
43155;BME280;34212;51.018;13.586;2022-09-09T08:24:26;97570.50;;;21.87;73.80
43155;BME280;34212;51.018;13.586;2022-09-09T08:29:28;97577.31;;;21.95;73.26
43155;BME280;34212;51.018;13.586;2022-09-09T08:34:30;97574.66;;;22.00;73.34
43155;BME280;34212;51.018;13.586;2022-09-09T08:39:36;97578.22;;;22.05;73.59
43155;BME280;34212;51.018;13.586;2022-09-09T08:55:25;97585.63;;;22.47;72.56
43155;BME280;34212;51.018;13.586;2022-09-09T09:00:29;97588.91;;;22.49;72.08
43155;BME280;34212;51.018;13.586;2022-09-09T09:05:37;97592.69;;;22.48;71.40
43155;BME280;34212;51.018;13.586;2022-09-09T09:10:45;97591.06;;;22.47;70.83
43155;BME280;34212;51.018;13.586;2022-09-09T09:15:53;97601.34;;;22.40;70.20
43155;BME280;34212;51.018;13.586;2022-09-09T09:21:02;97592.94;;;22.42;70.88
43155;BME280;34212;51.018;13.586;2022-09-09T09:26:06;97593.78;;;22.47;71.33
43155;BME280;34212;51.018;13.586;2022-09-09T09:31:10;97595.47;;;22.58;71.64
43155;BME280;34212;51.018;13.586;2022-09-09T09:36:15;97595.88;;;22.77;72.43
43155;BME280;34212;51.018;13.586;2022-09-09T09:41:28;97599.00;;;22.96;73.07
43155;BME280;34212;51.018;13.586;2022-09-09T09:46:30;97593.06;;;23.10;72.70
43155;BME280;34212;51.018;13.586;2022-09-09T09:51:40;97592.31;;;23.29;73.36
43155;BME280;34212;51.018;13.586;2022-09-09T09:56:42;97586.63;;;23.41;72.72
43155;BME280;34212;51.018;13.586;2022-09-09T10:01:44;97590.50;;;23.61;72.46
43155;BME280;34212;51.018;13.586;2022-09-09T10:06:47;97576.94;;;23.81;72.03
43155;BME280;34212;51.018;13.586;2022-09-09T10:11:52;97581.03;;;23.89;71.88
43155;BME280;34212;51.018;13.586;2022-09-09T10:17:00;97580.75;;;23.95;72.10
43155;BME280;34212;51.018;13.586;2022-09-09T10:22:10;97576.16;;;23.96;71.51
43155;BME280;34212;51.018;13.586;2022-09-09T10:32:37;97562.25;;;24.13;72.17
43155;BME280;34212;51.018;13.586;2022-09-09T10:42:43;97560.63;;;24.42;72.14
43155;BME280;34212;51.018;13.586;2022-09-09T10:58:00;97544.25;;;24.32;73.70
43155;BME280;34212;51.018;13.586;2022-09-09T11:03:05;97545.63;;;24.19;72.89
43155;BME280;34212;51.018;13.586;2022-09-09T11:08:15;97536.63;;;24.14;73.29
43155;BME280;34212;51.018;13.586;2022-09-09T11:18:23;97540.44;;;23.92;73.50
43155;BME280;34212;51.018;13.586;2022-09-09T11:23:27;97547.53;;;23.88;73.06
43155;BME280;34212;51.018;13.586;2022-09-09T11:38:46;97539.94;;;24.06;70.22
43155;BME280;34212;51.018;13.586;2022-09-09T11:43:51;97519.75;;;24.27;70.12
43155;BME280;34212;51.018;13.586;2022-09-09T11:49:00;97527.38;;;24.20;70.05
43155;BME280;34212;51.018;13.586;2022-09-09T11:59:23;97530.09;;;24.10;70.53
43155;BME280;34212;51.018;13.586;2022-09-09T12:09:28;97521.91;;;24.20;67.59
43155;BME280;34212;51.018;13.586;2022-09-09T12:14:35;97516.50;;;24.15;66.96
43155;BME280;34212;51.018;13.586;2022-09-09T12:19:37;97508.28;;;24.20;66.16
43155;BME280;34212;51.018;13.586;2022-09-09T12:30:11;97499.81;;;24.32;64.81
43155;BME280;34212;51.018;13.586;2022-09-09T12:35:17;97497.94;;;24.42;64.38
43155;BME280;34212;51.018;13.586;2022-09-09T12:40:21;97489.16;;;24.56;62.69
43155;BME280;34212;51.018;13.586;2022-09-09T12:45:27;97485.84;;;24.64;61.32
43155;BME280;34212;51.018;13.586;2022-09-09T12:50:33;97496.00;;;24.48;61.88
43155;BME280;34212;51.018;13.586;2022-09-09T12:55:36;97487.81;;;24.53;60.88
43155;BME280;34212;51.018;13.586;2022-09-09T13:00:48;97484.19;;;24.73;59.69
43155;BME280;34212;51.018;13.586;2022-09-09T13:05:51;97473.00;;;24.75;59.41
43155;BME280;34212;51.018;13.586;2022-09-09T13:10:55;97478.16;;;24.81;58.93
43155;BME280;34212;51.018;13.586;2022-09-09T13:16:03;97474.56;;;24.91;58.95
43155;BME280;34212;51.018;13.586;2022-09-09T13:21:06;97466.81;;;25.14;59.21
43155;BME280;34212;51.018;13.586;2022-09-09T13:26:22;97468.41;;;26.22;57.33
43155;BME280;34212;51.018;13.586;2022-09-09T13:36:32;97472.84;;;26.18;56.51
43155;BME280;34212;51.018;13.586;2022-09-09T13:41:36;97472.09;;;25.78;58.78
43155;BME280;34212;51.018;13.586;2022-09-09T13:46:42;97473.78;;;25.35;58.05
43155;BME280;34212;51.018;13.586;2022-09-09T13:51:45;97476.97;;;25.03;59.28
43155;BME280;34212;51.018;13.586;2022-09-09T13:56:47;97473.25;;;24.78;59.37
43155;BME280;34212;51.018;13.586;2022-09-09T14:01:50;97470.06;;;24.61;59.10
43155;BME280;34212;51.018;13.586;2022-09-09T14:06:53;97478.28;;;24.56;60.63
43155;BME280;34212;51.018;13.586;2022-09-09T14:11:55;97479.63;;;24.53;60.61
43155;BME280;34212;51.018;13.586;2022-09-09T14:16:57;97469.53;;;24.54;60.83
43155;BME280;34212;51.018;13.586;2022-09-09T14:21:58;97458.63;;;24.59;61.29
43155;BME280;34212;51.018;13.586;2022-09-09T14:26:59;97455.91;;;24.59;61.79
43155;BME280;34212;51.018;13.586;2022-09-09T14:32:01;97449.59;;;24.63;61.83
43155;BME280;34212;51.018;13.586;2022-09-09T14:37:02;97456.97;;;24.68;60.99
43155;BME280;34212;51.018;13.586;2022-09-09T14:42:04;97450.88;;;24.86;61.87
43155;BME280;34212;51.018;13.586;2022-09-09T14:47:06;97438.75;;;25.08;60.66
43155;BME280;34212;51.018;13.586;2022-09-09T14:52:09;97438.75;;;25.08;61.04
43155;BME280;34212;51.018;13.586;2022-09-09T14:57:10;97436.69;;;24.89;61.34
43155;BME280;34212;51.018;13.586;2022-09-09T15:02:12;97436.88;;;24.98;61.76
43155;BME280;34212;51.018;13.586;2022-09-09T15:07:15;97440.09;;;25.16;60.16
43155;BME280;34212;51.018;13.586;2022-09-09T15:12:17;97442.56;;;25.07;60.15
43155;BME280;34212;51.018;13.586;2022-09-09T15:17:21;97435.56;;;24.91;60.29
43155;BME280;34212;51.018;13.586;2022-09-09T15:22:23;97440.72;;;24.92;59.70
43155;BME280;34212;51.018;13.586;2022-09-09T15:27:25;97451.13;;;24.90;59.12
43155;BME280;34212;51.018;13.586;2022-09-09T15:32:27;97449.78;;;24.82;59.27
43155;BME280;34212;51.018;13.586;2022-09-09T15:37:28;97439.75;;;24.73;58.61
43155;BME280;34212;51.018;13.586;2022-09-09T15:42:29;97439.00;;;24.57;58.03
43155;BME280;34212;51.018;13.586;2022-09-09T15:47:31;97441.78;;;24.52;59.38
43155;BME280;34212;51.018;13.586;2022-09-09T15:52:33;97434.16;;;24.49;60.16
43155;BME280;34212;51.018;13.586;2022-09-09T15:57:34;97439.06;;;24.41;60.45
43155;BME280;34212;51.018;13.586;2022-09-09T16:02:35;97446.13;;;24.32;61.14
43155;BME280;34212;51.018;13.586;2022-09-09T16:07:38;97429.28;;;24.20;60.52
43155;BME280;34212;51.018;13.586;2022-09-09T16:12:40;97429.63;;;24.08;61.26
43155;BME280;34212;51.018;13.586;2022-09-09T16:17:41;97430.97;;;24.01;61.33
43155;BME280;34212;51.018;13.586;2022-09-09T16:22:42;97439.69;;;23.97;61.74
43155;BME280;34212;51.018;13.586;2022-09-09T16:27:44;97447.56;;;24.04;62.46
43155;BME280;34212;51.018;13.586;2022-09-09T16:32:45;97445.94;;;24.13;62.66
43155;BME280;34212;51.018;13.586;2022-09-09T16:37:47;97446.72;;;24.19;62.06
43155;BME280;34212;51.018;13.586;2022-09-09T16:42:48;97446.72;;;24.19;61.24
43155;BME280;34212;51.018;13.586;2022-09-09T16:47:49;97449.47;;;24.19;61.36
43155;BME280;34212;51.018;13.586;2022-09-09T16:52:51;97458.19;;;24.16;62.29
43155;BME280;34212;51.018;13.586;2022-09-09T16:57:52;97468.00;;;24.07;62.15
43155;BME280;34212;51.018;13.586;2022-09-09T17:02:55;97475.09;;;23.92;60.76
43155;BME280;34212;51.018;13.586;2022-09-09T17:07:57;97473.75;;;23.74;58.96
43155;BME280;34212;51.018;13.586;2022-09-09T17:12:58;97475.09;;;23.57;58.45
43155;BME280;34212;51.018;13.586;2022-09-09T17:18:00;97477.25;;;23.34;57.91
43155;BME280;34212;51.018;13.586;2022-09-09T17:23:01;97475.31;;;23.09;57.70
43155;BME280;34212;51.018;13.586;2022-09-09T17:28:02;97485.81;;;22.90;57.98
43155;BME280;34212;51.018;13.586;2022-09-09T17:33:07;97486.56;;;22.70;58.78
43155;BME280;34212;51.018;13.586;2022-09-09T17:38:08;97493.28;;;22.52;59.32
43155;BME280;34212;51.018;13.586;2022-09-09T17:43:09;97486.13;;;22.31;59.61
43155;BME280;34212;51.018;13.586;2022-09-09T17:48:11;97500.34;;;22.11;60.13
43155;BME280;34212;51.018;13.586;2022-09-09T17:53:12;97509.16;;;21.91;60.64
43155;BME280;34212;51.018;13.586;2022-09-09T17:58:14;97513.38;;;21.77;61.29
43155;BME280;34212;51.018;13.586;2022-09-09T18:03:16;97513.03;;;21.68;61.59
43155;BME280;34212;51.018;13.586;2022-09-09T18:08:18;97526.81;;;21.61;61.55
43155;BME280;34212;51.018;13.586;2022-09-09T18:13:19;97525.69;;;21.57;62.30
43155;BME280;34212;51.018;13.586;2022-09-09T18:18:21;97533.25;;;21.50;63.16
43155;BME280;34212;51.018;13.586;2022-09-09T18:23:22;97526.94;;;21.44;63.99
43155;BME280;34212;51.018;13.586;2022-09-09T18:28:27;97532.31;;;21.39;64.40
43155;BME280;34212;51.018;13.586;2022-09-09T18:33:28;97537.66;;;21.34;64.88
43155;BME280;34212;51.018;13.586;2022-09-09T18:38:31;97529.72;;;21.28;65.31
43155;BME280;34212;51.018;13.586;2022-09-09T18:43:34;97526.97;;;21.22;65.75
43155;BME280;34212;51.018;13.586;2022-09-09T18:48:35;97535.03;;;21.17;66.09
43155;BME280;34212;51.018;13.586;2022-09-09T18:53:38;97538.53;;;21.13;66.34
43155;BME280;34212;51.018;13.586;2022-09-09T18:58:39;97540.06;;;21.09;66.73
43155;BME280;34212;51.018;13.586;2022-09-09T19:03:41;97541.44;;;21.06;66.94
43155;BME280;34212;51.018;13.586;2022-09-09T19:08:43;97539.22;;;21.03;66.92
43155;BME280;34212;51.018;13.586;2022-09-09T19:13:51;97546.78;;;21.01;67.01
43155;BME280;34212;51.018;13.586;2022-09-09T19:18:53;97545.00;;;20.90;67.16
43155;BME280;34212;51.018;13.586;2022-09-09T19:23:59;97550.94;;;20.87;67.46
43155;BME280;34212;51.018;13.586;2022-09-09T19:29:01;97553.59;;;20.82;67.66
43155;BME280;34212;51.018;13.586;2022-09-09T19:34:03;97542.44;;;20.78;67.71
43155;BME280;34212;51.018;13.586;2022-09-09T19:39:04;97552.41;;;20.72;67.84
43155;BME280;34212;51.018;13.586;2022-09-09T19:44:07;97558.56;;;20.68;67.94
43155;BME280;34212;51.018;13.586;2022-09-09T19:49:12;97553.91;;;20.63;68.28
43155;BME280;34212;51.018;13.586;2022-09-09T19:54:15;97550.06;;;20.59;68.10
43155;BME280;34212;51.018;13.586;2022-09-09T19:59:16;97548.91;;;20.55;67.93
43155;BME280;34212;51.018;13.586;2022-09-09T20:04:18;97564.00;;;20.51;68.01
43155;BME280;34212;51.018;13.586;2022-09-09T20:09:20;97549.06;;;20.48;68.00
43155;BME280;34212;51.018;13.586;2022-09-09T20:14:21;97555.56;;;20.47;68.02
43155;BME280;34212;51.018;13.586;2022-09-09T20:19:22;97554.47;;;20.48;68.13
43155;BME280;34212;51.018;13.586;2022-09-09T20:24:24;97563.19;;;20.50;68.34
43155;BME280;34212;51.018;13.586;2022-09-09T20:29:26;97566.94;;;20.49;68.70
43155;BME280;34212;51.018;13.586;2022-09-09T20:34:27;97581.25;;;20.45;68.46
43155;BME280;34212;51.018;13.586;2022-09-09T20:39:30;97574.19;;;20.44;68.68
43155;BME280;34212;51.018;13.586;2022-09-09T20:44:31;97581.25;;;20.45;68.95
43155;BME280;34212;51.018;13.586;2022-09-09T20:49:33;97583.69;;;20.46;69.11
43155;BME280;34212;51.018;13.586;2022-09-09T20:54:38;97580.75;;;20.48;69.23
43155;BME280;34212;51.018;13.586;2022-09-09T20:59:40;97586.41;;;20.46;69.48
43155;BME280;34212;51.018;13.586;2022-09-09T21:04:43;97584.53;;;20.47;69.45
43155;BME280;34212;51.018;13.586;2022-09-09T21:09:47;97584.25;;;20.48;69.55
43155;BME280;34212;51.018;13.586;2022-09-09T21:14:49;97586.97;;;20.48;69.60
43155;BME280;34212;51.018;13.586;2022-09-09T21:19:51;97594.78;;;20.45;69.71
43155;BME280;34212;51.018;13.586;2022-09-09T21:24:57;97589.88;;;20.42;70.02
43155;BME280;34212;51.018;13.586;2022-09-09T21:29:58;97596.34;;;20.41;70.22
43155;BME280;34212;51.018;13.586;2022-09-09T21:35:00;97597.09;;;20.36;70.17
43155;BME280;34212;51.018;13.586;2022-09-09T21:40:01;97604.88;;;20.33;70.43
43155;BME280;34212;51.018;13.586;2022-09-09T21:45:03;97596.69;;;20.27;70.25
43155;BME280;34212;51.018;13.586;2022-09-09T21:50:05;97590.13;;;20.23;70.36
43155;BME280;34212;51.018;13.586;2022-09-09T21:55:06;97592.25;;;20.21;70.03
43155;BME280;34212;51.018;13.586;2022-09-09T22:00:10;97589.22;;;20.18;70.14
43155;BME280;34212;51.018;13.586;2022-09-09T22:05:18;97594.91;;;20.16;70.05
43155;BME280;34212;51.018;13.586;2022-09-09T22:10:20;97590.78;;;20.14;70.15
43155;BME280;34212;51.018;13.586;2022-09-09T22:15:21;97584.78;;;20.12;70.28
43155;BME280;34212;51.018;13.586;2022-09-09T22:20:23;97589.06;;;20.07;70.10
43155;BME280;34212;51.018;13.586;2022-09-09T22:25:25;97582.75;;;20.02;69.88
43155;BME280;34212;51.018;13.586;2022-09-09T22:30:26;97583.22;;;19.99;69.74
43155;BME280;34212;51.018;13.586;2022-09-09T22:35:28;97582.66;;;19.97;69.55
43155;BME280;34212;51.018;13.586;2022-09-09T22:40:30;97574.19;;;19.93;69.30
43155;BME280;34212;51.018;13.586;2022-09-09T22:45:31;97564.72;;;19.91;69.32
43155;BME280;34212;51.018;13.586;2022-09-09T22:50:33;97564.63;;;19.86;69.39
43155;BME280;34212;51.018;13.586;2022-09-09T22:55:52;97558.28;;;19.80;69.26
43155;BME280;34212;51.018;13.586;2022-09-09T23:00:54;97552.38;;;19.66;68.97
43155;BME280;34212;51.018;13.586;2022-09-09T23:05:59;97553.13;;;19.50;68.86
43155;BME280;34212;51.018;13.586;2022-09-09T23:11:05;97548.50;;;19.33;68.70
43155;BME280;34212;51.018;13.586;2022-09-09T23:16:09;97553.31;;;19.14;68.29
43155;BME280;34212;51.018;13.586;2022-09-09T23:21:11;97552.53;;;19.02;68.13
43155;BME280;34212;51.018;13.586;2022-09-09T23:26:14;97547.25;;;18.96;68.73
43155;BME280;34212;51.018;13.586;2022-09-09T23:31:20;97543.16;;;18.93;68.85
43155;BME280;34212;51.018;13.586;2022-09-09T23:36:23;97548.81;;;18.91;69.13
43155;BME280;34212;51.018;13.586;2022-09-09T23:41:30;97555.72;;;18.87;69.19
43155;BME280;34212;51.018;13.586;2022-09-09T23:46:32;97553.91;;;18.76;68.51
43155;BME280;34212;51.018;13.586;2022-09-09T23:51:33;97563.72;;;18.70;68.45
43155;BME280;34212;51.018;13.586;2022-09-09T23:56:39;97554.38;;;18.73;68.33
